sensor_id;sensor_type;location;lat;lon;timestamp;P1;durP1;ratioP1;P2;durP2;ratioP2
52508;SDS011;38420;53.150;6.370;2023-07-08T00:00:17;11.35;;;5.13;;
52508;SDS011;38420;53.150;6.370;2023-07-08T00:02:45;11.40;;;5.43;;
52508;SDS011;38420;53.150;6.370;2023-07-08T00:05:11;8.07;;;4.70;;
52508;SDS011;38420;53.150;6.370;2023-07-08T00:07:38;7.70;;;5.60;;
52508;SDS011;38420;53.150;6.370;2023-07-08T00:10:27;11.73;;;5.20;;
52508;SDS011;38420;53.150;6.370;2023-07-08T00:12:53;12.38;;;5.18;;
52508;SDS011;38420;53.150;6.370;2023-07-08T00:15:29;10.60;;;6.15;;
52508;SDS011;38420;53.150;6.370;2023-07-08T00:17:59;9.65;;;5.45;;
52508;SDS011;38420;53.150;6.370;2023-07-08T00:20:36;7.20;;;5.22;;
52508;SDS011;38420;53.150;6.370;2023-07-08T00:23:10;10.90;;;5.93;;
52508;SDS011;38420;53.150;6.370;2023-07-08T00:25:36;8.57;;;5.82;;
52508;SDS011;38420;53.150;6.370;2023-07-08T00:28:02;10.23;;;4.95;;
52508;SDS011;38420;53.150;6.370;2023-07-08T00:30:30;8.70;;;5.22;;
52508;SDS011;38420;53.150;6.370;2023-07-08T00:32:57;11.35;;;5.35;;
52508;SDS011;38420;53.150;6.370;2023-07-08T00:35:31;13.88;;;5.65;;
52508;SDS011;38420;53.150;6.370;2023-07-08T00:38:02;10.68;;;5.75;;
52508;SDS011;38420;53.150;6.370;2023-07-08T00:43:41;6.70;;;4.65;;
52508;SDS011;38420;53.150;6.370;2023-07-08T00:49:42;8.77;;;5.00;;
52508;SDS011;38420;53.150;6.370;2023-07-08T00:51:46;10.63;;;5.57;;
52508;SDS011;38420;53.150;6.370;2023-07-08T00:54:16;9.23;;;5.20;;
52508;SDS011;38420;53.150;6.370;2023-07-08T00:59:14;8.10;;;5.28;;
52508;SDS011;38420;53.150;6.370;2023-07-08T01:01:45;11.10;;;5.32;;
52508;SDS011;38420;53.150;6.370;2023-07-08T01:04:13;8.15;;;5.40;;
52508;SDS011;38420;53.150;6.370;2023-07-08T01:06:45;8.48;;;5.40;;
52508;SDS011;38420;53.150;6.370;2023-07-08T01:09:18;13.68;;;6.20;;
52508;SDS011;38420;53.150;6.370;2023-07-08T01:11:43;9.93;;;5.63;;
52508;SDS011;38420;53.150;6.370;2023-07-08T01:14:11;7.28;;;5.25;;
52508;SDS011;38420;53.150;6.370;2023-07-08T01:16:39;8.60;;;4.90;;
52508;SDS011;38420;53.150;6.370;2023-07-08T01:19:05;9.30;;;5.78;;
52508;SDS011;38420;53.150;6.370;2023-07-08T01:21:39;8.60;;;5.40;;
52508;SDS011;38420;53.150;6.370;2023-07-08T01:24:18;10.27;;;6.00;;
52508;SDS011;38420;53.150;6.370;2023-07-08T01:26:44;9.50;;;5.85;;
52508;SDS011;38420;53.150;6.370;2023-07-08T01:29:11;10.30;;;5.55;;
52508;SDS011;38420;53.150;6.370;2023-07-08T01:31:37;6.68;;;5.47;;
52508;SDS011;38420;53.150;6.370;2023-07-08T01:34:04;8.70;;;5.80;;
52508;SDS011;38420;53.150;6.370;2023-07-08T01:36:31;9.43;;;5.25;;
52508;SDS011;38420;53.150;6.370;2023-07-08T01:39:10;8.27;;;6.20;;
52508;SDS011;38420;53.150;6.370;2023-07-08T01:41:38;10.45;;;5.80;;
52508;SDS011;38420;53.150;6.370;2023-07-08T01:44:03;13.25;;;6.20;;
52508;SDS011;38420;53.150;6.370;2023-07-08T01:46:29;9.43;;;6.32;;
52508;SDS011;38420;53.150;6.370;2023-07-08T01:48:57;7.78;;;5.63;;
52508;SDS011;38420;53.150;6.370;2023-07-08T01:51:24;9.80;;;6.13;;
52508;SDS011;38420;53.150;6.370;2023-07-08T01:53:51;12.45;;;7.30;;
52508;SDS011;38420;53.150;6.370;2023-07-08T01:56:17;8.63;;;6.00;;
52508;SDS011;38420;53.150;6.370;2023-07-08T01:58:42;13.18;;;6.32;;
52508;SDS011;38420;53.150;6.370;2023-07-08T02:01:08;11.88;;;6.10;;
52508;SDS011;38420;53.150;6.370;2023-07-08T02:03:34;15.07;;;7.13;;
52508;SDS011;38420;53.150;6.370;2023-07-08T02:06:01;12.48;;;6.88;;
52508;SDS011;38420;53.150;6.370;2023-07-08T02:08:27;9.13;;;6.78;;
52508;SDS011;38420;53.150;6.370;2023-07-08T02:10:54;10.25;;;6.70;;
52508;SDS011;38420;53.150;6.370;2023-07-08T02:13:21;9.10;;;6.57;;
52508;SDS011;38420;53.150;6.370;2023-07-08T02:15:48;13.20;;;7.10;;
52508;SDS011;38420;53.150;6.370;2023-07-08T02:18:15;14.65;;;7.18;;
52508;SDS011;38420;53.150;6.370;2023-07-08T02:20:42;11.00;;;6.47;;
52508;SDS011;38420;53.150;6.370;2023-07-08T02:23:07;10.50;;;6.55;;
52508;SDS011;38420;53.150;6.370;2023-07-08T02:25:33;12.75;;;7.45;;
52508;SDS011;38420;53.150;6.370;2023-07-08T02:27:59;8.85;;;6.65;;
52508;SDS011;38420;53.150;6.370;2023-07-08T02:30:25;12.50;;;7.30;;
52508;SDS011;38420;53.150;6.370;2023-07-08T02:32:51;10.23;;;6.40;;
52508;SDS011;38420;53.150;6.370;2023-07-08T02:35:23;9.38;;;6.97;;
52508;SDS011;38420;53.150;6.370;2023-07-08T02:37:53;13.20;;;7.03;;
52508;SDS011;38420;53.150;6.370;2023-07-08T02:40:20;10.30;;;6.70;;
52508;SDS011;38420;53.150;6.370;2023-07-08T02:42:46;9.20;;;7.47;;
52508;SDS011;38420;53.150;6.370;2023-07-08T02:45:12;10.85;;;8.60;;
52508;SDS011;38420;53.150;6.370;2023-07-08T02:47:39;13.35;;;7.75;;
52508;SDS011;38420;53.150;6.370;2023-07-08T02:50:05;10.10;;;7.38;;
52508;SDS011;38420;53.150;6.370;2023-07-08T02:52:32;11.88;;;8.15;;
52508;SDS011;38420;53.150;6.370;2023-07-08T02:54:57;14.02;;;8.50;;
52508;SDS011;38420;53.150;6.370;2023-07-08T02:57:23;11.23;;;8.23;;
52508;SDS011;38420;53.150;6.370;2023-07-08T02:59:49;9.95;;;7.85;;
52508;SDS011;38420;53.150;6.370;2023-07-08T03:02:14;12.88;;;8.48;;
52508;SDS011;38420;53.150;6.370;2023-07-08T03:04:40;12.30;;;7.63;;
52508;SDS011;38420;53.150;6.370;2023-07-08T03:07:06;11.57;;;7.30;;
52508;SDS011;38420;53.150;6.370;2023-07-08T03:09:36;12.40;;;8.35;;
52508;SDS011;38420;53.150;6.370;2023-07-08T03:12:09;12.48;;;7.90;;
52508;SDS011;38420;53.150;6.370;2023-07-08T03:14:35;9.40;;;7.65;;
52508;SDS011;38420;53.150;6.370;2023-07-08T03:17:01;14.10;;;8.40;;
52508;SDS011;38420;53.150;6.370;2023-07-08T03:19:27;11.40;;;8.40;;
52508;SDS011;38420;53.150;6.370;2023-07-08T03:21:53;15.57;;;8.05;;
52508;SDS011;38420;53.150;6.370;2023-07-08T03:24:19;15.52;;;9.32;;
52508;SDS011;38420;53.150;6.370;2023-07-08T03:26:45;13.60;;;8.35;;
52508;SDS011;38420;53.150;6.370;2023-07-08T03:29:13;12.98;;;8.80;;
52508;SDS011;38420;53.150;6.370;2023-07-08T03:31:41;11.52;;;8.48;;
52508;SDS011;38420;53.150;6.370;2023-07-08T03:34:10;11.55;;;9.00;;
52508;SDS011;38420;53.150;6.370;2023-07-08T03:36:40;12.18;;;9.20;;
52508;SDS011;38420;53.150;6.370;2023-07-08T03:39:13;14.48;;;9.13;;
52508;SDS011;38420;53.150;6.370;2023-07-08T03:41:40;17.15;;;9.45;;
52508;SDS011;38420;53.150;6.370;2023-07-08T03:44:06;13.32;;;9.45;;
52508;SDS011;38420;53.150;6.370;2023-07-08T03:46:32;12.18;;;8.93;;
52508;SDS011;38420;53.150;6.370;2023-07-08T03:48:57;10.30;;;8.35;;
52508;SDS011;38420;53.150;6.370;2023-07-08T03:51:24;12.75;;;9.35;;
52508;SDS011;38420;53.150;6.370;2023-07-08T03:54:09;14.57;;;8.98;;
52508;SDS011;38420;53.150;6.370;2023-07-08T03:56:37;12.85;;;8.82;;
52508;SDS011;38420;53.150;6.370;2023-07-08T03:59:03;18.17;;;10.00;;
52508;SDS011;38420;53.150;6.370;2023-07-08T04:01:29;12.65;;;9.55;;
52508;SDS011;38420;53.150;6.370;2023-07-08T04:03:55;13.07;;;9.35;;
52508;SDS011;38420;53.150;6.370;2023-07-08T04:06:23;13.23;;;9.15;;
52508;SDS011;38420;53.150;6.370;2023-07-08T04:08:50;13.60;;;10.45;;
52508;SDS011;38420;53.150;6.370;2023-07-08T04:11:17;14.05;;;9.50;;
52508;SDS011;38420;53.150;6.370;2023-07-08T04:13:47;13.55;;;9.00;;
52508;SDS011;38420;53.150;6.370;2023-07-08T04:16:14;15.30;;;9.77;;
52508;SDS011;38420;53.150;6.370;2023-07-08T04:18:43;18.95;;;9.65;;
52508;SDS011;38420;53.150;6.370;2023-07-08T04:21:09;13.73;;;9.10;;
52508;SDS011;38420;53.150;6.370;2023-07-08T04:23:34;16.08;;;9.52;;
52508;SDS011;38420;53.150;6.370;2023-07-08T04:26:00;12.63;;;9.13;;
52508;SDS011;38420;53.150;6.370;2023-07-08T04:28:26;15.70;;;10.13;;
52508;SDS011;38420;53.150;6.370;2023-07-08T04:30:52;16.15;;;10.10;;
52508;SDS011;38420;53.150;6.370;2023-07-08T04:33:17;14.25;;;10.23;;
52508;SDS011;38420;53.150;6.370;2023-07-08T04:35:43;12.02;;;9.13;;
52508;SDS011;38420;53.150;6.370;2023-07-08T04:38:20;12.32;;;8.95;;
52508;SDS011;38420;53.150;6.370;2023-07-08T04:40:47;12.93;;;9.88;;
52508;SDS011;38420;53.150;6.370;2023-07-08T04:43:14;12.05;;;9.13;;
52508;SDS011;38420;53.150;6.370;2023-07-08T04:45:40;16.55;;;9.55;;
52508;SDS011;38420;53.150;6.370;2023-07-08T04:48:11;13.18;;;9.25;;
52508;SDS011;38420;53.150;6.370;2023-07-08T04:50:42;15.50;;;10.15;;
52508;SDS011;38420;53.150;6.370;2023-07-08T04:53:09;11.15;;;9.07;;
52508;SDS011;38420;53.150;6.370;2023-07-08T04:55:44;14.30;;;9.93;;
52508;SDS011;38420;53.150;6.370;2023-07-08T04:58:16;12.00;;;9.70;;
52508;SDS011;38420;53.150;6.370;2023-07-08T05:00:41;13.30;;;9.13;;
52508;SDS011;38420;53.150;6.370;2023-07-08T05:03:07;12.23;;;9.10;;
52508;SDS011;38420;53.150;6.370;2023-07-08T05:05:33;10.95;;;9.60;;
52508;SDS011;38420;53.150;6.370;2023-07-08T05:07:59;11.77;;;8.90;;
52508;SDS011;38420;53.150;6.370;2023-07-08T05:10:25;10.35;;;8.57;;
52508;SDS011;38420;53.150;6.370;2023-07-08T05:12:51;14.65;;;8.88;;
52508;SDS011;38420;53.150;6.370;2023-07-08T05:15:16;10.75;;;8.60;;
52508;SDS011;38420;53.150;6.370;2023-07-08T05:17:42;11.80;;;8.85;;
52508;SDS011;38420;53.150;6.370;2023-07-08T05:20:09;11.40;;;9.10;;
52508;SDS011;38420;53.150;6.370;2023-07-08T05:22:37;12.55;;;8.45;;
52508;SDS011;38420;53.150;6.370;2023-07-08T05:25:04;13.00;;;8.50;;
52508;SDS011;38420;53.150;6.370;2023-07-08T05:27:30;13.15;;;8.05;;
52508;SDS011;38420;53.150;6.370;2023-07-08T05:29:58;11.85;;;8.32;;
52508;SDS011;38420;53.150;6.370;2023-07-08T05:32:25;11.20;;;8.10;;
52508;SDS011;38420;53.150;6.370;2023-07-08T05:34:52;10.07;;;7.70;;
52508;SDS011;38420;53.150;6.370;2023-07-08T05:37:17;13.35;;;8.50;;
52508;SDS011;38420;53.150;6.370;2023-07-08T05:39:46;14.50;;;8.60;;
52508;SDS011;38420;53.150;6.370;2023-07-08T05:42:12;11.60;;;8.45;;
52508;SDS011;38420;53.150;6.370;2023-07-08T05:44:37;11.00;;;8.13;;
52508;SDS011;38420;53.150;6.370;2023-07-08T05:47:03;9.88;;;7.30;;
52508;SDS011;38420;53.150;6.370;2023-07-08T05:49:29;9.80;;;7.40;;
52508;SDS011;38420;53.150;6.370;2023-07-08T05:51:55;12.05;;;7.35;;
52508;SDS011;38420;53.150;6.370;2023-07-08T05:54:20;13.25;;;7.65;;
52508;SDS011;38420;53.150;6.370;2023-07-08T05:56:46;10.07;;;7.43;;
52508;SDS011;38420;53.150;6.370;2023-07-08T05:59:11;9.40;;;7.53;;
52508;SDS011;38420;53.150;6.370;2023-07-08T06:01:37;14.15;;;7.35;;
52508;SDS011;38420;53.150;6.370;2023-07-08T06:04:03;12.45;;;7.32;;
52508;SDS011;38420;53.150;6.370;2023-07-08T06:06:29;10.95;;;6.93;;
52508;SDS011;38420;53.150;6.370;2023-07-08T06:08:54;11.23;;;6.63;;
52508;SDS011;38420;53.150;6.370;2023-07-08T06:11:20;8.90;;;6.68;;
52508;SDS011;38420;53.150;6.370;2023-07-08T06:13:47;9.02;;;6.82;;
52508;SDS011;38420;53.150;6.370;2023-07-08T06:16:13;8.77;;;7.25;;
52508;SDS011;38420;53.150;6.370;2023-07-08T06:18:39;11.43;;;7.00;;
52508;SDS011;38420;53.150;6.370;2023-07-08T06:21:05;10.88;;;6.30;;
52508;SDS011;38420;53.150;6.370;2023-07-08T06:23:30;11.63;;;6.78;;
52508;SDS011;38420;53.150;6.370;2023-07-08T06:25:56;9.13;;;6.50;;
52508;SDS011;38420;53.150;6.370;2023-07-08T06:28:22;9.13;;;6.60;;
52508;SDS011;38420;53.150;6.370;2023-07-08T06:30:48;7.30;;;5.80;;
52508;SDS011;38420;53.150;6.370;2023-07-08T06:33:14;8.77;;;5.78;;
52508;SDS011;38420;53.150;6.370;2023-07-08T06:35:40;9.43;;;6.35;;
52508;SDS011;38420;53.150;6.370;2023-07-08T06:38:06;9.93;;;5.35;;
52508;SDS011;38420;53.150;6.370;2023-07-08T06:40:33;10.05;;;5.25;;
52508;SDS011;38420;53.150;6.370;2023-07-08T06:42:59;8.30;;;5.82;;
52508;SDS011;38420;53.150;6.370;2023-07-08T06:45:24;10.25;;;5.93;;
52508;SDS011;38420;53.150;6.370;2023-07-08T06:47:50;7.55;;;5.95;;
52508;SDS011;38420;53.150;6.370;2023-07-08T06:50:16;9.80;;;6.20;;
52508;SDS011;38420;53.150;6.370;2023-07-08T06:52:42;8.20;;;5.60;;
52508;SDS011;38420;53.150;6.370;2023-07-08T06:55:08;9.20;;;6.22;;
52508;SDS011;38420;53.150;6.370;2023-07-08T06:57:35;9.30;;;5.70;;
52508;SDS011;38420;53.150;6.370;2023-07-08T07:00:03;11.38;;;6.40;;
52508;SDS011;38420;53.150;6.370;2023-07-08T07:02:30;8.40;;;6.53;;
52508;SDS011;38420;53.150;6.370;2023-07-08T07:04:56;9.07;;;5.95;;
52508;SDS011;38420;53.150;6.370;2023-07-08T07:07:22;8.20;;;5.78;;
52508;SDS011;38420;53.150;6.370;2023-07-08T07:09:47;12.50;;;5.45;;
52508;SDS011;38420;53.150;6.370;2023-07-08T07:12:13;9.15;;;5.72;;
52508;SDS011;38420;53.150;6.370;2023-07-08T07:14:39;7.75;;;5.38;;
52508;SDS011;38420;53.150;6.370;2023-07-08T07:17:04;8.60;;;6.00;;
52508;SDS011;38420;53.150;6.370;2023-07-08T07:19:30;7.50;;;6.00;;
52508;SDS011;38420;53.150;6.370;2023-07-08T07:21:56;9.48;;;6.03;;
52508;SDS011;38420;53.150;6.370;2023-07-08T07:24:21;9.30;;;5.70;;
52508;SDS011;38420;53.150;6.370;2023-07-08T07:26:47;6.68;;;5.38;;
52508;SDS011;38420;53.150;6.370;2023-07-08T07:29:15;11.50;;;5.90;;
52508;SDS011;38420;53.150;6.370;2023-07-08T07:31:42;7.97;;;5.55;;
52508;SDS011;38420;53.150;6.370;2023-07-08T07:34:07;8.93;;;5.47;;
52508;SDS011;38420;53.150;6.370;2023-07-08T07:36:33;7.40;;;4.60;;
52508;SDS011;38420;53.150;6.370;2023-07-08T07:38:59;6.95;;;5.03;;
52508;SDS011;38420;53.150;6.370;2023-07-08T07:41:25;8.48;;;5.40;;
52508;SDS011;38420;53.150;6.370;2023-07-08T07:43:50;7.85;;;4.75;;
52508;SDS011;38420;53.150;6.370;2023-07-08T07:46:16;7.35;;;5.07;;
52508;SDS011;38420;53.150;6.370;2023-07-08T07:48:42;7.97;;;5.00;;
52508;SDS011;38420;53.150;6.370;2023-07-08T07:51:07;8.55;;;5.07;;
52508;SDS011;38420;53.150;6.370;2023-07-08T07:53:35;7.65;;;4.78;;
52508;SDS011;38420;53.150;6.370;2023-07-08T07:56:02;8.90;;;4.88;;
52508;SDS011;38420;53.150;6.370;2023-07-08T07:58:29;7.93;;;4.53;;
52508;SDS011;38420;53.150;6.370;2023-07-08T08:00:55;10.68;;;4.35;;
52508;SDS011;38420;53.150;6.370;2023-07-08T08:03:21;7.30;;;4.80;;
52508;SDS011;38420;53.150;6.370;2023-07-08T08:05:47;6.07;;;4.57;;
52508;SDS011;38420;53.150;6.370;2023-07-08T08:08:13;7.28;;;4.72;;
52508;SDS011;38420;53.150;6.370;2023-07-08T08:10:39;5.85;;;4.70;;
52508;SDS011;38420;53.150;6.370;2023-07-08T08:13:04;10.27;;;7.65;;
52508;SDS011;38420;53.150;6.370;2023-07-08T08:15:30;6.65;;;4.50;;
52508;SDS011;38420;53.150;6.370;2023-07-08T08:17:56;9.45;;;6.78;;
52508;SDS011;38420;53.150;6.370;2023-07-08T08:20:22;10.90;;;4.72;;
52508;SDS011;38420;53.150;6.370;2023-07-08T08:22:49;6.55;;;4.95;;
52508;SDS011;38420;53.150;6.370;2023-07-08T08:25:16;22.58;;;19.50;;
52508;SDS011;38420;53.150;6.370;2023-07-08T08:27:44;6.88;;;5.28;;
52508;SDS011;38420;53.150;6.370;2023-07-08T08:30:09;9.25;;;6.45;;
52508;SDS011;38420;53.150;6.370;2023-07-08T08:32:36;7.50;;;4.40;;
52508;SDS011;38420;53.150;6.370;2023-07-08T08:35:02;7.70;;;4.43;;
52508;SDS011;38420;53.150;6.370;2023-07-08T08:37:28;6.82;;;3.90;;
52508;SDS011;38420;53.150;6.370;2023-07-08T08:39:53;5.00;;;4.50;;
52508;SDS011;38420;53.150;6.370;2023-07-08T08:42:26;6.82;;;4.47;;
52508;SDS011;38420;53.150;6.370;2023-07-08T08:44:58;7.03;;;4.40;;
52508;SDS011;38420;53.150;6.370;2023-07-08T08:47:32;5.80;;;4.53;;
52508;SDS011;38420;53.150;6.370;2023-07-08T08:51:05;8.63;;;4.60;;
52508;SDS011;38420;53.150;6.370;2023-07-08T08:53:20;11.45;;;7.15;;
52508;SDS011;38420;53.150;6.370;2023-07-08T08:55:50;9.18;;;7.35;;
52508;SDS011;38420;53.150;6.370;2023-07-08T08:58:42;9.45;;;6.82;;
52508;SDS011;38420;53.150;6.370;2023-07-08T09:01:12;8.25;;;7.32;;
52508;SDS011;38420;53.150;6.370;2023-07-08T09:03:43;6.30;;;5.03;;
52508;SDS011;38420;53.150;6.370;2023-07-08T09:08:48;5.18;;;4.22;;
52508;SDS011;38420;53.150;6.370;2023-07-08T09:14:09;7.18;;;3.92;;
52508;SDS011;38420;53.150;6.370;2023-07-08T09:27:05;7.90;;;6.00;;
52508;SDS011;38420;53.150;6.370;2023-07-08T09:29:31;8.38;;;4.25;;
52508;SDS011;38420;53.150;6.370;2023-07-08T09:31:58;6.40;;;4.60;;
52508;SDS011;38420;53.150;6.370;2023-07-08T09:34:36;6.75;;;4.88;;
52508;SDS011;38420;53.150;6.370;2023-07-08T09:37:18;5.40;;;4.47;;
52508;SDS011;38420;53.150;6.370;2023-07-08T09:42:40;11.52;;;4.85;;
52508;SDS011;38420;53.150;6.370;2023-07-08T09:45:12;7.40;;;4.60;;
52508;SDS011;38420;53.150;6.370;2023-07-08T09:47:43;5.88;;;4.45;;
52508;SDS011;38420;53.150;6.370;2023-07-08T09:50:20;7.88;;;4.45;;
52508;SDS011;38420;53.150;6.370;2023-07-08T09:52:55;6.93;;;5.10;;
52508;SDS011;38420;53.150;6.370;2023-07-08T09:55:22;5.72;;;4.07;;
52508;SDS011;38420;53.150;6.370;2023-07-08T09:57:49;7.20;;;4.53;;
52508;SDS011;38420;53.150;6.370;2023-07-08T10:00:18;7.03;;;4.45;;
52508;SDS011;38420;53.150;6.370;2023-07-08T10:02:55;7.32;;;4.95;;
52508;SDS011;38420;53.150;6.370;2023-07-08T10:05:23;9.15;;;4.88;;
52508;SDS011;38420;53.150;6.370;2023-07-08T10:07:56;7.75;;;4.38;;
52508;SDS011;38420;53.150;6.370;2023-07-08T10:10:24;6.70;;;4.60;;
52508;SDS011;38420;53.150;6.370;2023-07-08T10:13:03;7.93;;;4.65;;
52508;SDS011;38420;53.150;6.370;2023-07-08T10:15:37;8.70;;;5.30;;
52508;SDS011;38420;53.150;6.370;2023-07-08T10:18:16;9.77;;;5.18;;
52508;SDS011;38420;53.150;6.370;2023-07-08T10:26:27;10.00;;;5.28;;
52508;SDS011;38420;53.150;6.370;2023-07-08T10:29:02;6.05;;;4.47;;
52508;SDS011;38420;53.150;6.370;2023-07-08T10:31:39;9.40;;;5.10;;
52508;SDS011;38420;53.150;6.370;2023-07-08T10:45:44;6.45;;;5.07;;
52508;SDS011;38420;53.150;6.370;2023-07-08T10:56:29;7.97;;;4.85;;
52508;SDS011;38420;53.150;6.370;2023-07-08T10:59:20;7.38;;;4.95;;
52508;SDS011;38420;53.150;6.370;2023-07-08T11:04:48;9.88;;;5.22;;
52508;SDS011;38420;53.150;6.370;2023-07-08T11:10:17;8.48;;;5.32;;
52508;SDS011;38420;53.150;6.370;2023-07-08T11:12:54;8.55;;;4.95;;
52508;SDS011;38420;53.150;6.370;2023-07-08T11:15:29;8.10;;;5.30;;
52508;SDS011;38420;53.150;6.370;2023-07-08T11:20:59;10.32;;;5.35;;
52508;SDS011;38420;53.150;6.370;2023-07-08T11:23:56;6.55;;;4.43;;
52508;SDS011;38420;53.150;6.370;2023-07-08T11:26:50;6.97;;;5.05;;
52508;SDS011;38420;53.150;6.370;2023-07-08T11:29:39;7.40;;;5.05;;
52508;SDS011;38420;53.150;6.370;2023-07-08T11:32:14;13.35;;;5.45;;
52508;SDS011;38420;53.150;6.370;2023-07-08T11:37:10;6.70;;;4.93;;
52508;SDS011;38420;53.150;6.370;2023-07-08T11:39:42;10.18;;;5.60;;
52508;SDS011;38420;53.150;6.370;2023-07-08T11:42:22;6.55;;;5.03;;
52508;SDS011;38420;53.150;6.370;2023-07-08T11:44:58;6.80;;;5.47;;
52508;SDS011;38420;53.150;6.370;2023-07-08T11:47:41;8.43;;;5.10;;
52508;SDS011;38420;53.150;6.370;2023-07-08T11:50:20;8.18;;;5.43;;
52508;SDS011;38420;53.150;6.370;2023-07-08T11:52:50;6.60;;;5.32;;
52508;SDS011;38420;53.150;6.370;2023-07-08T11:55:28;9.82;;;5.07;;
52508;SDS011;38420;53.150;6.370;2023-07-08T11:58:23;8.43;;;5.03;;
52508;SDS011;38420;53.150;6.370;2023-07-08T12:00:59;6.18;;;5.15;;
52508;SDS011;38420;53.150;6.370;2023-07-08T12:09:15;6.80;;;5.05;;
52508;SDS011;38420;53.150;6.370;2023-07-08T12:11:52;8.88;;;5.45;;
52508;SDS011;38420;53.150;6.370;2023-07-08T12:14:20;10.00;;;4.88;;
52508;SDS011;38420;53.150;6.370;2023-07-08T12:16:48;6.57;;;5.53;;
52508;SDS011;38420;53.150;6.370;2023-07-08T12:19:15;9.65;;;5.53;;
52508;SDS011;38420;53.150;6.370;2023-07-08T12:21:42;5.72;;;5.22;;
52508;SDS011;38420;53.150;6.370;2023-07-08T12:24:10;8.48;;;5.15;;
52508;SDS011;38420;53.150;6.370;2023-07-08T12:26:38;8.88;;;4.88;;
52508;SDS011;38420;53.150;6.370;2023-07-08T12:29:05;6.85;;;5.45;;
52508;SDS011;38420;53.150;6.370;2023-07-08T12:31:31;9.77;;;5.60;;
52508;SDS011;38420;53.150;6.370;2023-07-08T12:33:57;6.88;;;5.13;;
52508;SDS011;38420;53.150;6.370;2023-07-08T12:36:28;10.25;;;5.07;;
52508;SDS011;38420;53.150;6.370;2023-07-08T12:38:55;9.25;;;5.38;;
52508;SDS011;38420;53.150;6.370;2023-07-08T12:41:30;7.05;;;5.10;;
52508;SDS011;38420;53.150;6.370;2023-07-08T12:43:57;7.85;;;5.20;;
52508;SDS011;38420;53.150;6.370;2023-07-08T12:46:24;15.52;;;6.05;;
52508;SDS011;38420;53.150;6.370;2023-07-08T12:48:51;11.57;;;7.40;;
52508;SDS011;38420;53.150;6.370;2023-07-08T12:51:24;7.78;;;5.18;;
52508;SDS011;38420;53.150;6.370;2023-07-08T12:53:51;8.70;;;5.70;;
52508;SDS011;38420;53.150;6.370;2023-07-08T12:56:19;7.72;;;5.38;;
52508;SDS011;38420;53.150;6.370;2023-07-08T12:58:51;7.10;;;5.65;;
52508;SDS011;38420;53.150;6.370;2023-07-08T13:01:20;10.35;;;5.25;;
52508;SDS011;38420;53.150;6.370;2023-07-08T13:03:48;7.32;;;5.78;;
52508;SDS011;38420;53.150;6.370;2023-07-08T13:06:18;9.38;;;5.80;;
52508;SDS011;38420;53.150;6.370;2023-07-08T13:08:46;9.02;;;5.80;;
52508;SDS011;38420;53.150;6.370;2023-07-08T13:11:13;11.07;;;5.70;;
52508;SDS011;38420;53.150;6.370;2023-07-08T13:13:54;8.13;;;6.28;;
52508;SDS011;38420;53.150;6.370;2023-07-08T13:16:25;8.73;;;6.25;;
52508;SDS011;38420;53.150;6.370;2023-07-08T13:18:56;8.98;;;6.07;;
52508;SDS011;38420;53.150;6.370;2023-07-08T13:21:22;11.40;;;6.18;;
52508;SDS011;38420;53.150;6.370;2023-07-08T13:23:49;10.15;;;6.50;;
52508;SDS011;38420;53.150;6.370;2023-07-08T13:26:17;6.93;;;6.03;;
52508;SDS011;38420;53.150;6.370;2023-07-08T13:28:47;10.75;;;8.15;;
52508;SDS011;38420;53.150;6.370;2023-07-08T13:31:18;8.48;;;6.63;;
52508;SDS011;38420;53.150;6.370;2023-07-08T13:33:54;9.75;;;6.20;;
52508;SDS011;38420;53.150;6.370;2023-07-08T13:36:21;7.90;;;6.03;;
52508;SDS011;38420;53.150;6.370;2023-07-08T13:38:57;6.78;;;5.72;;
52508;SDS011;38420;53.150;6.370;2023-07-08T13:41:24;8.98;;;5.88;;
52508;SDS011;38420;53.150;6.370;2023-07-08T13:43:50;7.35;;;5.95;;
52508;SDS011;38420;53.150;6.370;2023-07-08T13:46:29;8.95;;;6.32;;
52508;SDS011;38420;53.150;6.370;2023-07-08T13:51:40;10.52;;;7.00;;
52508;SDS011;38420;53.150;6.370;2023-07-08T13:54:12;9.50;;;7.03;;
52508;SDS011;38420;53.150;6.370;2023-07-08T13:56:49;12.07;;;6.85;;
52508;SDS011;38420;53.150;6.370;2023-07-08T13:59:23;7.50;;;6.47;;
52508;SDS011;38420;53.150;6.370;2023-07-08T14:01:50;10.38;;;6.68;;
52508;SDS011;38420;53.150;6.370;2023-07-08T14:04:19;9.50;;;6.65;;
52508;SDS011;38420;53.150;6.370;2023-07-08T14:07:04;8.73;;;7.13;;
52508;SDS011;38420;53.150;6.370;2023-07-08T14:09:34;7.95;;;6.45;;
52508;SDS011;38420;53.150;6.370;2023-07-08T14:12:00;9.95;;;7.53;;
52508;SDS011;38420;53.150;6.370;2023-07-08T14:14:25;7.53;;;6.70;;
52508;SDS011;38420;53.150;6.370;2023-07-08T14:16:51;13.60;;;7.10;;
52508;SDS011;38420;53.150;6.370;2023-07-08T14:19:21;9.30;;;6.68;;
52508;SDS011;38420;53.150;6.370;2023-07-08T14:21:56;9.55;;;6.75;;
52508;SDS011;38420;53.150;6.370;2023-07-08T14:24:24;10.48;;;6.97;;
52508;SDS011;38420;53.150;6.370;2023-07-08T14:26:50;7.57;;;6.78;;
52508;SDS011;38420;53.150;6.370;2023-07-08T14:29:17;11.30;;;7.13;;
52508;SDS011;38420;53.150;6.370;2023-07-08T14:31:42;9.63;;;7.18;;
52508;SDS011;38420;53.150;6.370;2023-07-08T14:34:09;10.10;;;6.97;;
52508;SDS011;38420;53.150;6.370;2023-07-08T14:36:38;12.43;;;7.80;;
52508;SDS011;38420;53.150;6.370;2023-07-08T14:39:16;10.88;;;7.55;;
52508;SDS011;38420;53.150;6.370;2023-07-08T14:41:43;9.88;;;7.07;;
52508;SDS011;38420;53.150;6.370;2023-07-08T14:44:15;13.80;;;8.00;;
52508;SDS011;38420;53.150;6.370;2023-07-08T14:46:47;10.23;;;7.88;;
52508;SDS011;38420;53.150;6.370;2023-07-08T14:49:15;10.82;;;7.30;;
52508;SDS011;38420;53.150;6.370;2023-07-08T14:51:43;10.23;;;7.07;;
52508;SDS011;38420;53.150;6.370;2023-07-08T14:54:08;10.23;;;7.55;;
52508;SDS011;38420;53.150;6.370;2023-07-08T14:56:34;12.52;;;7.70;;
52508;SDS011;38420;53.150;6.370;2023-07-08T14:59:00;12.02;;;7.68;;
52508;SDS011;38420;53.150;6.370;2023-07-08T15:01:26;11.10;;;8.13;;
52508;SDS011;38420;53.150;6.370;2023-07-08T15:03:55;9.65;;;7.63;;
52508;SDS011;38420;53.150;6.370;2023-07-08T15:06:21;11.40;;;7.88;;
52508;SDS011;38420;53.150;6.370;2023-07-08T15:08:47;10.23;;;7.80;;
52508;SDS011;38420;53.150;6.370;2023-07-08T15:11:13;10.68;;;8.18;;
52508;SDS011;38420;53.150;6.370;2023-07-08T15:13:41;11.57;;;8.38;;
52508;SDS011;38420;53.150;6.370;2023-07-08T15:16:12;9.50;;;7.53;;
52508;SDS011;38420;53.150;6.370;2023-07-08T15:18:40;11.68;;;8.25;;
52508;SDS011;38420;53.150;6.370;2023-07-08T15:21:09;14.63;;;8.57;;
52508;SDS011;38420;53.150;6.370;2023-07-08T15:23:36;11.98;;;8.23;;
52508;SDS011;38420;53.150;6.370;2023-07-08T15:26:02;10.75;;;7.93;;
52508;SDS011;38420;53.150;6.370;2023-07-08T15:28:37;12.82;;;8.43;;
52508;SDS011;38420;53.150;6.370;2023-07-08T15:31:13;14.73;;;8.80;;
52508;SDS011;38420;53.150;6.370;2023-07-08T15:33:50;11.02;;;8.10;;
52508;SDS011;38420;53.150;6.370;2023-07-08T15:36:17;10.82;;;8.25;;
52508;SDS011;38420;53.150;6.370;2023-07-08T15:38:43;10.90;;;7.90;;
52508;SDS011;38420;53.150;6.370;2023-07-08T15:41:15;13.98;;;8.85;;
52508;SDS011;38420;53.150;6.370;2023-07-08T15:43:47;10.60;;;8.50;;
52508;SDS011;38420;53.150;6.370;2023-07-08T15:46:13;12.73;;;8.73;;
52508;SDS011;38420;53.150;6.370;2023-07-08T15:48:40;10.45;;;8.27;;
52508;SDS011;38420;53.150;6.370;2023-07-08T15:51:07;10.10;;;8.20;;
52508;SDS011;38420;53.150;6.370;2023-07-08T15:53:33;9.57;;;8.60;;
52508;SDS011;38420;53.150;6.370;2023-07-08T15:55:59;11.90;;;8.98;;
52508;SDS011;38420;53.150;6.370;2023-07-08T15:58:27;12.80;;;8.90;;
52508;SDS011;38420;53.150;6.370;2023-07-08T16:00:56;14.38;;;8.48;;
52508;SDS011;38420;53.150;6.370;2023-07-08T16:03:24;10.93;;;8.48;;